createdAt,value
2023-05-14T00:01:08.120Z,12.42
2023-05-14T00:03:34.646Z,12.33
2023-05-14T00:06:01.223Z,12.37
2023-05-14T00:08:27.740Z,12.43
2023-05-14T00:10:54.128Z,12.41
2023-05-14T00:13:20.573Z,12.39
2023-05-14T00:15:46.957Z,12.36
2023-05-14T00:18:13.438Z,12.25
2023-05-14T00:20:40.907Z,12.32
2023-05-14T00:23:07.309Z,12.31
2023-05-14T00:25:33.683Z,12.32
2023-05-14T00:28:00.036Z,12.30
2023-05-14T00:30:26.426Z,12.23
2023-05-14T00:32:52.850Z,12.15
2023-05-14T00:35:20.443Z,12.14
2023-05-14T00:37:47.341Z,12.05
2023-05-14T00:40:14.124Z,12.09
2023-05-14T00:42:40.947Z,12.05
2023-05-14T00:45:07.901Z,12.00
2023-05-14T00:47:38.857Z,11.98
2023-05-14T00:50:06.393Z,11.96
2023-05-14T00:52:33.062Z,12.00
2023-05-14T00:55:00.696Z,11.96
2023-05-14T00:57:27.147Z,11.99
2023-05-14T00:59:53.909Z,12.01
2023-05-14T01:02:20.486Z,12.03
2023-05-14T01:04:46.961Z,11.98
2023-05-14T01:07:46.630Z,11.91
2023-05-14T01:10:45.679Z,11.72
2023-05-14T01:13:44.061Z,11.63
2023-05-14T01:16:14.327Z,11.62
2023-05-14T01:18:43.967Z,11.59
2023-05-14T01:21:35.461Z,11.57
2023-05-14T01:24:02.120Z,11.53
2023-05-14T01:26:30.441Z,11.51
2023-05-14T01:29:03.939Z,11.48
2023-05-14T01:31:32.270Z,11.56
2023-05-14T01:34:00.617Z,11.45
2023-05-14T01:36:29.281Z,11.43
2023-05-14T01:38:57.628Z,11.43
2023-05-14T01:41:25.906Z,11.41
2023-05-14T01:43:52.457Z,11.37
2023-05-14T01:46:19.689Z,11.31
2023-05-14T01:48:46.276Z,11.32
2023-05-14T01:51:14.635Z,11.32
2023-05-14T01:53:41.075Z,11.29
2023-05-14T01:56:07.506Z,11.27
2023-05-14T01:58:33.891Z,11.24
2023-05-14T02:01:00.336Z,11.30
2023-05-14T02:03:26.776Z,11.22
2023-05-14T02:05:53.140Z,11.26
2023-05-14T02:08:19.502Z,11.28
2023-05-14T02:10:45.901Z,11.25
2023-05-14T02:13:12.253Z,11.25
2023-05-14T02:15:38.690Z,11.17
2023-05-14T02:18:05.450Z,11.16
2023-05-14T02:20:31.808Z,11.11
2023-05-14T02:22:58.211Z,11.09
2023-05-14T02:25:24.692Z,11.04
2023-05-14T02:27:51.081Z,11.07
2023-05-14T02:30:17.536Z,11.06
2023-05-14T02:32:44.029Z,11.06
2023-05-14T02:35:10.649Z,11.07
2023-05-14T02:37:37.092Z,11.05
2023-05-14T02:40:04.542Z,11.00
2023-05-14T02:42:31.784Z,11.00
2023-05-14T02:44:58.189Z,10.96
2023-05-14T02:47:24.568Z,10.93
2023-05-14T02:49:51.153Z,10.90
2023-05-14T02:52:17.517Z,10.87
2023-05-14T02:54:43.861Z,10.90
2023-05-14T02:57:10.348Z,10.92
2023-05-14T02:59:36.737Z,10.84
2023-05-14T03:02:03.793Z,10.91
2023-05-14T03:04:30.781Z,10.86
2023-05-14T03:06:57.186Z,10.85
2023-05-14T03:09:23.605Z,10.81
2023-05-14T03:11:50.769Z,10.71
2023-05-14T03:14:17.256Z,10.67
2023-05-14T03:16:43.628Z,10.69
2023-05-14T03:19:10.292Z,10.64
2023-05-14T03:21:36.949Z,10.62
2023-05-14T03:24:03.740Z,10.62
2023-05-14T03:26:30.087Z,10.65
2023-05-14T03:28:56.963Z,10.58
2023-05-14T03:31:23.675Z,10.61
2023-05-14T03:33:50.389Z,10.57
2023-05-14T03:36:16.837Z,10.56
2023-05-14T03:38:43.219Z,10.57
2023-05-14T03:41:09.585Z,10.57
2023-05-14T03:43:36.076Z,10.51
2023-05-14T03:46:02.396Z,10.56
2023-05-14T03:48:28.856Z,10.62
2023-05-14T03:50:55.442Z,10.63
2023-05-14T03:53:21.819Z,10.65
2023-05-14T03:55:48.314Z,10.65
2023-05-14T03:58:14.975Z,10.66
2023-05-14T04:00:42.556Z,10.64
2023-05-14T04:03:09.168Z,10.67
2023-05-14T04:05:35.898Z,10.65
2023-05-14T04:08:02.347Z,10.67
2023-05-14T04:10:28.864Z,10.70
2023-05-14T04:12:55.639Z,10.72
2023-05-14T04:15:22.188Z,10.70
2023-05-14T04:17:48.518Z,10.73
2023-05-14T04:20:14.860Z,10.72
2023-05-14T04:22:41.373Z,10.70
2023-05-14T04:25:08.132Z,10.65
2023-05-14T04:27:34.525Z,10.64
2023-05-14T04:30:01.407Z,10.69
2023-05-14T04:32:27.799Z,10.69
2023-05-14T04:34:54.136Z,10.73
2023-05-14T04:37:20.508Z,10.72
2023-05-14T04:39:46.872Z,10.74
2023-05-14T04:42:13.464Z,10.81
2023-05-14T04:44:40.165Z,10.90
2023-05-14T04:47:07.000Z,10.95
2023-05-14T04:49:33.622Z,11.04
2023-05-14T04:52:01.516Z,11.13
2023-05-14T04:54:27.966Z,11.20
2023-05-14T04:56:56.013Z,11.27
2023-05-14T04:59:22.636Z,11.35
2023-05-14T05:01:49.162Z,11.41
2023-05-14T05:04:15.876Z,11.44
2023-05-14T05:06:42.526Z,11.48
2023-05-14T05:09:09.863Z,11.51
2023-05-14T05:11:36.309Z,11.60
2023-05-14T05:14:02.657Z,11.62
2023-05-14T05:16:29.064Z,11.60
2023-05-14T05:18:55.573Z,11.67
2023-05-14T05:21:22.114Z,11.73
2023-05-14T05:23:48.695Z,11.79
2023-05-14T05:26:15.050Z,11.84
2023-05-14T05:28:41.380Z,11.87
2023-05-14T05:31:08.113Z,11.94
2023-05-14T05:33:35.691Z,11.97
2023-05-14T05:36:02.068Z,11.99
2023-05-14T05:38:28.447Z,11.89
2023-05-14T05:40:55.108Z,11.85
2023-05-14T05:43:21.514Z,11.85
2023-05-14T05:45:47.981Z,11.88
2023-05-14T05:48:14.501Z,11.90
2023-05-14T05:50:41.003Z,11.93
2023-05-14T05:53:07.360Z,11.96
2023-05-14T05:55:33.678Z,11.96
2023-05-14T05:57:59.999Z,12.03
2023-05-14T06:00:26.770Z,12.03
2023-05-14T06:02:53.489Z,12.04
2023-05-14T06:05:20.061Z,12.11
2023-05-14T06:07:46.508Z,12.15
2023-05-14T06:10:12.961Z,12.20
2023-05-14T06:12:39.489Z,12.33
2023-05-14T06:15:06.582Z,12.62
2023-05-14T06:17:33.008Z,12.68
2023-05-14T06:19:59.486Z,12.91
2023-05-14T06:22:25.970Z,13.23
2023-05-14T06:24:52.455Z,13.23
2023-05-14T06:27:18.871Z,13.30
2023-05-14T06:29:45.268Z,13.35
2023-05-14T06:32:15.395Z,13.36
2023-05-14T06:34:42.730Z,13.93
2023-05-14T06:37:10.190Z,14.16
2023-05-14T06:39:37.616Z,14.21
2023-05-14T06:42:04.097Z,14.12
2023-05-14T06:44:33.691Z,14.45
2023-05-14T06:47:00.152Z,14.77
2023-05-14T06:49:26.608Z,14.73
2023-05-14T06:51:54.137Z,14.81
2023-05-14T06:54:20.638Z,14.97
2023-05-14T06:56:47.088Z,15.19
2023-05-14T06:59:13.526Z,15.40
2023-05-14T07:01:40.889Z,15.33
2023-05-14T07:04:07.508Z,15.21
2023-05-14T07:06:33.970Z,15.09
2023-05-14T07:09:01.544Z,15.15
2023-05-14T07:11:28.083Z,15.36
2023-05-14T07:13:54.473Z,15.74
2023-05-14T07:16:21.067Z,16.03
2023-05-14T07:18:47.584Z,16.12
2023-05-14T07:21:13.927Z,16.14
2023-05-14T07:23:40.305Z,15.94
2023-05-14T07:26:07.697Z,15.89
2023-05-14T07:28:34.757Z,15.85
2023-05-14T07:31:01.217Z,16.09
2023-05-14T07:33:27.636Z,16.15
2023-05-14T07:35:54.233Z,16.38
2023-05-14T07:38:21.101Z,16.72
2023-05-14T07:40:47.459Z,16.79
2023-05-14T07:43:14.251Z,17.11
2023-05-14T07:45:41.084Z,17.44
2023-05-14T07:48:07.658Z,17.51
2023-05-14T07:50:34.249Z,17.57
2023-05-14T07:53:00.619Z,17.57
2023-05-14T07:55:28.796Z,17.71
2023-05-14T07:57:55.481Z,17.62
2023-05-14T08:00:22.051Z,17.57
2023-05-14T08:02:49.247Z,17.72
2023-05-14T08:05:15.946Z,18.06
2023-05-14T08:07:42.323Z,17.96
2023-05-14T08:10:09.404Z,17.92
2023-05-14T08:12:35.758Z,17.84
2023-05-14T08:15:02.644Z,17.75
2023-05-14T08:17:29.052Z,17.98
2023-05-14T08:19:55.403Z,18.36
2023-05-14T08:22:21.811Z,18.51
2023-05-14T08:24:48.867Z,18.58
2023-05-14T08:27:16.485Z,19.11
2023-05-14T08:29:42.803Z,19.50
2023-05-14T08:32:21.987Z,20.08
2023-05-14T08:34:49.455Z,19.99
2023-05-14T08:37:15.977Z,19.98
2023-05-14T08:39:42.292Z,20.03
2023-05-14T08:42:12.013Z,20.21
2023-05-14T08:44:49.397Z,20.58
2023-05-14T08:47:18.500Z,20.99
2023-05-14T08:49:47.253Z,20.83
2023-05-14T08:52:16.007Z,20.52
2023-05-14T08:54:42.778Z,20.73
2023-05-14T08:57:09.744Z,20.74
2023-05-14T08:59:36.293Z,20.77
2023-05-14T09:02:05.160Z,20.72
2023-05-14T09:04:32.353Z,20.67
2023-05-14T09:07:01.189Z,20.50
2023-05-14T09:09:27.945Z,20.75
2023-05-14T09:11:54.413Z,20.85
2023-05-14T09:14:22.097Z,20.80
2023-05-14T09:16:50.463Z,20.96
2023-05-14T09:19:19.405Z,21.14
2023-05-14T09:21:49.926Z,21.25
2023-05-14T09:24:21.365Z,21.24
2023-05-14T09:26:51.698Z,21.61
2023-05-14T09:29:18.553Z,21.68
2023-05-14T09:31:45.360Z,21.80
2023-05-14T09:34:11.811Z,21.76
2023-05-14T09:36:38.297Z,21.91
2023-05-14T09:39:04.782Z,21.98
2023-05-14T09:41:31.156Z,22.14
2023-05-14T09:43:57.869Z,22.38
2023-05-14T09:46:24.103Z,22.53
2023-05-14T09:48:50.556Z,22.70
2023-05-14T09:51:20.978Z,22.79
2023-05-14T09:53:47.406Z,22.76
2023-05-14T09:56:14.725Z,22.76
2023-05-14T09:58:41.169Z,23.15
2023-05-14T10:01:07.967Z,23.25
2023-05-14T10:03:34.342Z,23.54
2023-05-14T10:06:06.542Z,23.42
2023-05-14T10:08:41.117Z,23.48
2023-05-14T10:11:13.820Z,23.57
2023-05-14T10:13:43.608Z,23.58
2023-05-14T10:16:21.891Z,23.77
2023-05-14T10:18:53.240Z,23.64
2023-05-14T10:21:22.505Z,23.66
2023-05-14T10:23:50.410Z,23.82
2023-05-14T10:26:17.037Z,24.01
2023-05-14T10:28:44.140Z,24.09
2023-05-14T10:31:10.689Z,24.06
2023-05-14T10:33:50.846Z,24.05
2023-05-14T10:36:17.689Z,24.29
2023-05-14T10:38:44.128Z,24.17
2023-05-14T10:41:12.840Z,24.22
2023-05-14T10:43:43.335Z,24.46
2023-05-14T10:46:12.722Z,24.43
2023-05-14T10:48:42.285Z,24.63
2023-05-14T10:51:11.013Z,24.81
2023-05-14T10:53:39.822Z,24.54
2023-05-14T10:56:12.810Z,24.62
2023-05-14T10:58:42.100Z,24.68
2023-05-14T11:01:10.382Z,24.56
2023-05-14T11:03:46.775Z,24.95
2023-05-14T11:06:15.194Z,25.35
2023-05-14T11:08:41.877Z,25.62
2023-05-14T11:11:09.031Z,25.86
2023-05-14T11:13:35.883Z,25.73
2023-05-14T11:16:15.050Z,25.57
2023-05-14T11:18:47.916Z,25.81
2023-05-14T11:21:14.302Z,26.03
2023-05-14T11:23:40.833Z,26.12
2023-05-14T11:26:07.339Z,26.03
2023-05-14T11:28:34.259Z,25.92
2023-05-14T11:31:00.728Z,26.14
2023-05-14T11:33:27.762Z,26.43
2023-05-14T11:35:54.246Z,26.50
2023-05-14T11:38:21.247Z,26.12
2023-05-14T11:40:58.747Z,26.27
2023-05-14T11:43:29.013Z,26.33
2023-05-14T11:45:56.077Z,26.05
2023-05-14T11:48:24.024Z,25.60
2023-05-14T11:50:53.868Z,25.33
2023-05-14T11:53:25.885Z,25.45
2023-05-14T11:55:54.503Z,25.94
2023-05-14T11:58:21.994Z,25.72
2023-05-14T12:00:52.363Z,26.15
2023-05-14T12:03:26.627Z,26.65
2023-05-14T12:06:01.295Z,26.80
2023-05-14T12:08:29.081Z,26.63
2023-05-14T12:10:56.216Z,26.84
2023-05-14T12:13:27.185Z,26.72
2023-05-14T12:15:55.356Z,27.02
2023-05-14T12:18:24.927Z,27.13
2023-05-14T12:20:52.155Z,26.88
2023-05-14T12:23:31.962Z,26.78
2023-05-14T12:26:06.689Z,26.72
2023-05-14T12:28:34.908Z,26.79
2023-05-14T12:31:03.720Z,27.18
2023-05-14T12:33:30.349Z,27.14
2023-05-14T12:36:17.595Z,27.28
2023-05-14T12:38:47.691Z,27.03
2023-05-14T12:41:13.928Z,27.47
2023-05-14T12:43:43.237Z,27.73
2023-05-14T12:46:10.672Z,27.79
2023-05-14T12:48:37.061Z,27.78
2023-05-14T12:51:03.815Z,27.66
2023-05-14T12:53:30.289Z,27.75
2023-05-14T12:55:56.712Z,28.09
2023-05-14T12:58:23.059Z,27.89
2023-05-14T13:00:49.414Z,27.72
2023-05-14T13:03:15.935Z,27.53
2023-05-14T13:05:42.222Z,27.48
2023-05-14T13:08:09.661Z,27.48
2023-05-14T13:10:36.062Z,27.81
2023-05-14T13:13:02.501Z,27.60
2023-05-14T13:15:29.022Z,27.39
2023-05-14T13:17:55.425Z,27.57
2023-05-14T13:20:23.520Z,27.57
2023-05-14T13:22:49.842Z,27.66
2023-05-14T13:25:16.385Z,27.60
2023-05-14T13:27:42.625Z,27.52
2023-05-14T13:30:09.303Z,27.19
2023-05-14T13:32:35.744Z,27.31
2023-05-14T13:35:02.203Z,27.39
2023-05-14T13:37:28.607Z,26.74
2023-05-14T13:39:55.227Z,26.78
2023-05-14T13:42:21.659Z,26.50
2023-05-14T13:44:48.135Z,26.67
2023-05-14T13:47:14.497Z,26.74
2023-05-14T13:49:40.850Z,26.78
2023-05-14T13:52:07.182Z,26.64
2023-05-14T13:54:33.531Z,26.60
2023-05-14T13:56:59.894Z,26.06
2023-05-14T13:59:26.311Z,25.85
2023-05-14T14:01:52.801Z,26.24
2023-05-14T14:04:19.922Z,26.34
2023-05-14T14:06:46.288Z,25.99
2023-05-14T14:09:13.680Z,26.20
2023-05-14T14:11:40.984Z,25.97
2023-05-14T14:14:07.382Z,26.08
2023-05-14T14:16:33.794Z,26.10
2023-05-14T14:19:00.254Z,25.96
2023-05-14T14:21:26.628Z,26.08
2023-05-14T14:23:53.604Z,26.10
2023-05-14T14:26:20.128Z,26.09
2023-05-14T14:28:46.597Z,25.96
2023-05-14T14:31:13.212Z,25.73
2023-05-14T14:33:39.729Z,25.92
2023-05-14T14:36:06.770Z,25.85
2023-05-14T14:38:33.168Z,26.23
2023-05-14T14:40:59.922Z,26.49
2023-05-14T14:43:26.304Z,26.62
2023-05-14T14:45:52.703Z,27.08
2023-05-14T14:48:23.281Z,27.29
2023-05-14T14:50:49.950Z,27.46
2023-05-14T14:53:16.187Z,27.25
2023-05-14T14:55:42.588Z,27.04
2023-05-14T14:58:09.123Z,26.81
2023-05-14T15:00:35.438Z,26.97
2023-05-14T15:03:01.890Z,26.65
2023-05-14T15:05:28.244Z,26.56
2023-05-14T15:07:54.569Z,26.49
2023-05-14T15:10:20.956Z,26.13
2023-05-14T15:12:47.441Z,25.69
2023-05-14T15:15:13.885Z,25.29
2023-05-14T15:17:40.838Z,24.81
2023-05-14T15:20:08.828Z,24.96
2023-05-14T15:22:35.208Z,24.83
2023-05-14T15:25:01.578Z,24.87
2023-05-14T15:27:27.942Z,25.05
2023-05-14T15:29:54.350Z,25.24
2023-05-14T15:32:20.828Z,25.38
2023-05-14T15:34:47.190Z,25.34
2023-05-14T15:37:13.502Z,25.42
2023-05-14T15:39:39.867Z,25.25
2023-05-14T15:42:06.698Z,24.99
2023-05-14T15:44:33.081Z,24.75
2023-05-14T15:46:59.385Z,24.84
2023-05-14T15:49:25.777Z,24.68
2023-05-14T15:51:52.161Z,24.12
2023-05-14T15:54:18.579Z,23.93
2023-05-14T15:56:45.165Z,24.03
2023-05-14T15:59:11.594Z,23.77
2023-05-14T16:01:37.931Z,23.53
2023-05-14T16:04:04.404Z,23.56
2023-05-14T16:06:31.071Z,23.22
2023-05-14T16:08:57.506Z,23.20
2023-05-14T16:11:23.931Z,23.26
2023-05-14T16:13:50.245Z,23.34
2023-05-14T16:16:16.803Z,23.33
2023-05-14T16:18:43.780Z,23.43
2023-05-14T16:21:10.205Z,23.31
2023-05-14T16:23:36.744Z,23.08
2023-05-14T16:26:03.130Z,23.05
2023-05-14T16:28:29.527Z,22.82
2023-05-14T16:30:56.057Z,22.60
2023-05-14T16:33:22.392Z,22.69
2023-05-14T16:35:49.807Z,22.61
2023-05-14T16:38:16.173Z,22.50
2023-05-14T16:40:42.790Z,22.49
2023-05-14T16:43:09.234Z,22.46
2023-05-14T16:45:37.216Z,22.10
2023-05-14T16:48:04.993Z,21.95
2023-05-14T16:50:31.813Z,21.82
2023-05-14T16:52:58.245Z,21.71
2023-05-14T16:55:25.174Z,21.63
2023-05-14T16:57:51.485Z,21.41
2023-05-14T17:00:18.040Z,21.21
2023-05-14T17:02:44.504Z,20.83
2023-05-14T17:05:10.944Z,20.61
2023-05-14T17:07:38.876Z,20.57
2023-05-14T17:10:06.352Z,20.32
2023-05-14T17:12:32.716Z,20.25
2023-05-14T17:14:59.033Z,20.07
2023-05-14T17:17:25.451Z,19.88
2023-05-14T17:19:51.821Z,19.72
2023-05-14T17:22:18.336Z,19.43
2023-05-14T17:24:44.709Z,19.34
2023-05-14T17:27:11.099Z,19.28
2023-05-14T17:29:37.493Z,19.12
2023-05-14T17:32:04.314Z,19.11
2023-05-14T17:34:30.790Z,18.95
2023-05-14T17:36:57.251Z,18.94
2023-05-14T17:39:23.645Z,18.54
2023-05-14T17:41:50.026Z,18.43
2023-05-14T17:44:16.363Z,18.35
2023-05-14T17:46:44.623Z,18.35
2023-05-14T17:49:20.445Z,18.21
2023-05-14T17:51:46.974Z,18.11
2023-05-14T17:54:13.706Z,17.96
2023-05-14T17:56:40.830Z,17.89
2023-05-14T17:59:07.548Z,17.76
2023-05-14T18:01:33.896Z,17.70
2023-05-14T18:04:00.334Z,17.66
2023-05-14T18:06:26.809Z,17.51
2023-05-14T18:08:53.180Z,17.53
2023-05-14T18:11:19.559Z,17.45
2023-05-14T18:13:45.946Z,17.21
2023-05-14T18:16:12.353Z,17.19
2023-05-14T18:18:38.938Z,17.18
2023-05-14T18:21:05.472Z,17.05
2023-05-14T18:23:32.130Z,16.79
2023-05-14T18:25:59.593Z,16.66
2023-05-14T18:28:26.404Z,16.63
2023-05-14T18:30:52.779Z,16.55
2023-05-14T18:33:19.154Z,16.47
2023-05-14T18:35:45.584Z,16.56
2023-05-14T18:38:13.543Z,16.47
2023-05-14T18:40:39.883Z,16.35
2023-05-14T18:43:06.278Z,16.39
2023-05-14T18:45:33.041Z,16.39
2023-05-14T18:47:59.589Z,16.23
2023-05-14T18:50:26.077Z,16.14
2023-05-14T18:52:52.448Z,16.00
2023-05-14T18:55:18.797Z,15.92
2023-05-14T18:57:45.282Z,15.87
2023-05-14T19:00:12.425Z,15.86
2023-05-14T19:02:38.877Z,15.91
2023-05-14T19:05:06.158Z,15.78
2023-05-14T19:07:32.617Z,15.72
2023-05-14T19:09:58.945Z,15.58
2023-05-14T19:12:25.283Z,15.37
2023-05-14T19:14:51.624Z,15.20
2023-05-14T19:17:20.473Z,15.09
2023-05-14T19:19:52.174Z,14.98
2023-05-14T19:22:19.452Z,14.96
2023-05-14T19:27:16.479Z,14.70
2023-05-14T19:29:43.698Z,14.59
2023-05-14T19:32:10.483Z,14.58
2023-05-14T19:34:36.945Z,14.59
2023-05-14T19:37:03.915Z,14.56
2023-05-14T19:39:30.341Z,14.54
2023-05-14T19:41:56.756Z,14.57
2023-05-14T19:44:23.094Z,14.57
2023-05-14T19:46:49.485Z,14.55
2023-05-14T19:49:15.946Z,14.54
2023-05-14T19:51:42.301Z,14.53
2023-05-14T19:54:09.939Z,14.46
2023-05-14T19:56:36.537Z,14.41
2023-05-14T19:59:02.874Z,14.34
2023-05-14T20:01:29.503Z,14.30
2023-05-14T20:03:56.014Z,14.22
2023-05-14T20:06:22.479Z,14.26
2023-05-14T20:08:48.952Z,14.24
2023-05-14T20:11:15.683Z,14.24
2023-05-14T20:13:42.095Z,14.12
2023-05-14T20:16:08.498Z,14.12
2023-05-14T20:18:34.896Z,14.08
2023-05-14T20:21:01.515Z,14.03
2023-05-14T20:23:28.023Z,14.02
2023-05-14T20:25:54.461Z,14.08
2023-05-14T20:28:24.209Z,13.97
2023-05-14T20:30:50.654Z,14.00
2023-05-14T20:33:17.237Z,13.83
2023-05-14T20:35:44.230Z,13.83
2023-05-14T20:38:12.502Z,13.75
2023-05-14T20:40:39.060Z,13.81
2023-05-14T20:43:05.416Z,13.94
2023-05-14T20:45:31.858Z,13.93
2023-05-14T20:47:58.248Z,13.89
2023-05-14T20:50:26.950Z,13.77
2023-05-14T20:52:53.825Z,13.80
2023-05-14T20:55:21.576Z,13.79
2023-05-14T20:57:49.541Z,13.85
2023-05-14T21:00:16.261Z,13.81
2023-05-14T21:02:42.949Z,13.77
2023-05-14T21:05:09.485Z,13.86
2023-05-14T21:07:36.490Z,13.84
2023-05-14T21:10:03.630Z,13.86
2023-05-14T21:12:30.127Z,13.90
2023-05-14T21:14:56.562Z,13.74
2023-05-14T21:17:23.051Z,13.72
2023-05-14T21:19:49.380Z,13.71
2023-05-14T21:22:15.819Z,13.62
2023-05-14T21:24:42.242Z,13.55
2023-05-14T21:27:08.689Z,13.65
2023-05-14T21:29:35.079Z,13.72
2023-05-14T21:32:01.526Z,13.71
2023-05-14T21:34:29.674Z,13.64
2023-05-14T21:36:56.898Z,13.64
2023-05-14T21:39:23.276Z,13.63
2023-05-14T21:41:49.868Z,13.63
2023-05-14T21:44:16.290Z,13.70
2023-05-14T21:46:42.736Z,13.63
2023-05-14T21:49:09.104Z,13.68
2023-05-14T21:51:35.847Z,13.71
2023-05-14T21:54:02.214Z,13.62
2023-05-14T21:56:28.593Z,13.57
2023-05-14T21:58:55.936Z,13.57
2023-05-14T22:01:22.692Z,13.56
2023-05-14T22:03:49.160Z,13.54
2023-05-14T22:06:15.580Z,13.52
2023-05-14T22:08:42.050Z,13.51
2023-05-14T22:11:08.422Z,13.47
2023-05-14T22:13:37.507Z,13.45
2023-05-14T22:16:11.988Z,13.45
2023-05-14T22:18:39.529Z,13.46
2023-05-14T22:21:06.074Z,13.45
2023-05-14T22:23:32.417Z,13.42
2023-05-14T22:25:58.840Z,13.37
2023-05-14T22:28:25.265Z,13.36
2023-05-14T22:30:51.710Z,13.36
2023-05-14T22:33:19.289Z,13.33
2023-05-14T22:35:45.723Z,13.29
2023-05-14T22:38:12.635Z,13.28
2023-05-14T22:40:38.984Z,13.28
2023-05-14T22:43:05.577Z,13.26
2023-05-14T22:45:32.006Z,13.26
2023-05-14T22:47:58.500Z,13.29
2023-05-14T22:50:24.946Z,13.26
2023-05-14T22:52:51.326Z,13.23
2023-05-14T22:55:17.884Z,13.22
2023-05-14T22:57:44.228Z,13.17
2023-05-14T23:00:11.433Z,13.10
2023-05-14T23:02:37.998Z,13.09
2023-05-14T23:05:05.095Z,13.05
2023-05-14T23:07:31.473Z,13.03
2023-05-14T23:09:57.792Z,13.05
2023-05-14T23:12:24.186Z,13.07
2023-05-14T23:14:50.578Z,13.07
2023-05-14T23:17:17.557Z,13.05
2023-05-14T23:19:44.063Z,13.05
2023-05-14T23:22:10.408Z,12.98
2023-05-14T23:24:36.928Z,12.97
2023-05-14T23:27:03.396Z,12.97
2023-05-14T23:29:29.791Z,12.96
2023-05-14T23:31:56.337Z,13.01
2023-05-14T23:34:23.003Z,13.03
2023-05-14T23:36:49.815Z,13.02
2023-05-14T23:39:16.368Z,13.03
2023-05-14T23:41:42.810Z,13.04
2023-05-14T23:44:09.189Z,13.06
2023-05-14T23:46:35.716Z,13.08
2023-05-14T23:49:02.122Z,13.07
2023-05-14T23:51:28.568Z,13.11
2023-05-14T23:53:58.444Z,13.11
2023-05-14T23:56:27.201Z,13.11
2023-05-14T23:58:53.917Z,13.05
